createdAt,value
2023-04-20T05:03:19.158Z,95407.00
2023-04-20T05:04:20.073Z,95401.00
2023-04-20T05:05:19.024Z,95401.00
2023-04-20T05:06:20.004Z,95401.00
2023-04-20T05:07:20.027Z,95401.00
2023-04-20T05:08:18.996Z,95407.00
2023-04-20T05:09:19.448Z,95405.00
2023-04-20T05:10:18.997Z,95405.00
2023-04-20T05:11:18.980Z,95403.00
2023-04-20T05:12:19.986Z,95401.00
2023-04-20T05:13:19.975Z,95401.00
2023-04-20T05:14:18.950Z,95403.00
2023-04-20T05:15:19.963Z,95403.00
2023-04-20T05:16:19.013Z,95405.00
2023-04-20T05:17:19.970Z,95403.00
2023-04-20T05:18:18.936Z,95405.00
2023-04-20T05:19:19.225Z,95405.00
2023-04-20T05:20:18.912Z,95407.00
2023-04-20T05:21:19.909Z,95405.00
2023-04-20T05:22:19.901Z,95405.00
2023-04-20T05:23:19.910Z,95403.00
2023-04-20T05:24:19.901Z,95405.00
2023-04-20T05:25:19.947Z,95403.00
2023-04-20T05:26:18.960Z,95403.00
2023-04-20T05:27:20.011Z,95403.00
2023-04-20T05:28:20.051Z,95401.00
2023-04-20T05:29:20.093Z,95401.00
2023-04-20T05:30:21.871Z,95401.00
2023-04-20T05:31:20.187Z,95403.00
2023-04-20T05:32:19.120Z,95403.00
2023-04-20T05:33:19.087Z,95401.00
2023-04-20T05:34:20.084Z,95401.00
2023-04-20T05:35:20.112Z,95399.00
2023-04-20T05:36:20.375Z,95403.00
2023-04-20T05:37:20.098Z,95407.00
2023-04-20T05:38:19.071Z,95405.00
2023-04-20T05:39:19.471Z,95409.00
2023-04-20T05:40:20.055Z,95407.00
2023-04-20T05:41:20.081Z,95409.00
2023-04-20T05:42:20.049Z,95409.00
2023-04-20T05:43:20.075Z,95407.00
2023-04-20T05:44:20.076Z,95405.00
2023-04-20T05:45:20.032Z,95401.00
2023-04-20T05:46:20.045Z,95403.00
2023-04-20T05:47:20.027Z,95399.00
2023-04-20T05:48:20.021Z,95405.00
2023-04-20T05:49:20.111Z,95401.00
2023-04-20T05:50:19.984Z,95405.00
2023-04-20T05:51:19.019Z,95403.00
2023-04-20T05:52:18.989Z,95407.00
2023-04-20T05:53:19.969Z,95407.00
2023-04-20T05:54:19.964Z,95401.00
2023-04-20T05:55:21.400Z,95399.00
2023-04-20T05:56:19.955Z,95399.00
2023-04-20T05:57:18.951Z,95393.00
2023-04-20T05:58:19.963Z,95393.00
2023-04-20T05:59:20.000Z,95393.00
2023-04-20T06:00:19.946Z,95393.00
2023-04-20T06:01:19.878Z,95393.00
2023-04-20T06:02:19.511Z,95395.00
2023-04-20T06:03:19.094Z,95395.00
2023-04-20T06:04:20.298Z,95397.00
2023-04-20T06:05:18.936Z,95393.00
2023-04-20T06:06:18.906Z,95397.00
2023-04-20T06:07:19.896Z,95393.00
2023-04-20T06:08:19.881Z,95395.00
2023-04-20T06:09:19.049Z,95397.00
2023-04-20T06:10:19.850Z,95399.00
2023-04-20T06:11:18.892Z,95399.00
2023-04-20T06:12:19.864Z,95397.00
2023-04-20T06:13:20.877Z,95395.00
2023-04-20T06:14:19.828Z,95393.00
2023-04-20T06:15:18.829Z,95393.00
2023-04-20T06:16:19.868Z,95391.00
2023-04-20T06:17:19.816Z,95393.00
2023-04-20T06:18:18.932Z,95391.00
2023-04-20T06:19:20.629Z,95389.00
2023-04-20T06:20:19.812Z,95391.00
2023-04-20T06:21:19.830Z,95391.00
2023-04-20T06:22:19.796Z,95393.00
2023-04-20T06:23:19.847Z,95395.00
2023-04-20T06:24:19.860Z,95399.00
2023-04-20T06:25:19.895Z,95401.00
2023-04-20T06:26:19.958Z,95399.00
2023-04-20T06:27:19.005Z,95401.00
2023-04-20T06:28:19.028Z,95399.00
2023-04-20T06:29:19.290Z,95399.00
2023-04-20T06:30:19.048Z,95399.00
2023-04-20T06:31:20.162Z,95395.00
2023-04-20T06:32:19.182Z,95395.00
2023-04-20T06:33:20.138Z,95397.00
2023-04-20T06:34:20.170Z,95397.00
2023-04-20T06:35:20.211Z,95397.00
2023-04-20T06:36:19.272Z,95395.00
2023-04-20T06:37:20.290Z,95397.00
2023-04-20T06:38:20.309Z,95399.00
2023-04-20T06:39:20.952Z,95399.00
2023-04-20T06:40:20.403Z,95401.00
2023-04-20T06:41:19.422Z,95403.00
2023-04-20T06:42:20.436Z,95405.00
2023-04-20T06:43:20.455Z,95407.00
2023-04-20T06:44:19.484Z,95405.00
2023-04-20T06:45:20.512Z,95403.00
2023-04-20T06:46:20.568Z,95401.00
2023-04-20T06:47:20.666Z,95401.00
2023-04-20T06:48:31.506Z,95395.00
2023-04-20T06:49:20.633Z,95395.00
2023-04-20T06:50:19.624Z,95393.00
2023-04-20T06:51:19.922Z,95395.00
2023-04-20T06:52:20.604Z,95393.00
2023-04-20T06:53:20.609Z,95393.00
2023-04-20T06:54:20.587Z,95389.00
2023-04-20T06:55:19.677Z,95391.00
2023-04-20T06:56:20.897Z,95387.00
2023-04-20T06:57:20.569Z,95387.00
2023-04-20T06:58:19.568Z,95385.00
2023-04-20T06:59:19.718Z,95385.00
2023-04-20T07:00:20.555Z,95383.00
2023-04-20T07:01:20.556Z,95382.00
2023-04-20T07:02:19.693Z,95378.00
2023-04-20T07:03:20.710Z,95376.00
2023-04-20T07:04:20.541Z,95374.00
2023-04-20T07:05:20.530Z,95374.00
2023-04-20T07:06:20.525Z,95374.00
2023-04-20T07:07:19.683Z,95374.00
2023-04-20T07:08:20.507Z,95368.00
2023-04-20T07:09:19.749Z,95370.00
2023-04-20T07:10:50.716Z,95366.00
2023-04-20T07:11:20.497Z,95366.00
2023-04-20T07:12:20.482Z,95364.00
2023-04-20T07:13:20.466Z,95368.00
2023-04-20T07:14:20.476Z,95368.00
2023-04-20T07:15:20.455Z,95366.00
2023-04-20T07:16:20.490Z,95364.00
2023-04-20T07:17:20.449Z,95368.00
2023-04-20T07:18:19.458Z,95368.00
2023-04-20T07:19:20.408Z,95368.00
2023-04-20T07:20:19.415Z,95368.00
2023-04-20T07:21:20.417Z,95366.00
2023-04-20T07:22:19.402Z,95362.00
2023-04-20T07:23:20.398Z,95362.00
2023-04-20T07:24:20.383Z,95362.00
2023-04-20T07:25:20.395Z,95360.00
2023-04-20T07:26:20.409Z,95358.00
2023-04-20T07:27:20.356Z,95358.00
2023-04-20T07:28:19.350Z,95354.00
2023-04-20T07:29:19.672Z,95350.00
2023-04-20T07:30:20.349Z,95350.00
2023-04-20T07:31:20.374Z,95348.00
2023-04-20T07:32:19.476Z,95348.00
2023-04-20T07:33:20.328Z,95346.00
2023-04-20T07:34:20.506Z,95346.00
2023-04-20T07:35:20.303Z,95344.00
2023-04-20T07:36:20.344Z,95346.00
2023-04-20T07:37:20.319Z,95348.00
2023-04-20T07:38:20.307Z,95344.00
2023-04-20T07:39:19.538Z,95348.00
2023-04-20T07:40:19.302Z,95348.00
2023-04-20T07:41:19.299Z,95352.00
2023-04-20T07:42:20.359Z,95350.00
2023-04-20T07:43:19.276Z,95352.00
2023-04-20T07:44:19.253Z,95352.00
2023-04-20T07:45:19.245Z,95352.00
2023-04-20T07:46:20.429Z,95354.00
2023-04-20T07:47:19.257Z,95350.00
2023-04-20T07:48:20.228Z,95352.00
2023-04-20T07:49:20.551Z,95350.00
2023-04-20T07:50:19.220Z,95350.00
2023-04-20T07:51:19.233Z,95354.00
2023-04-20T07:52:19.436Z,95356.00
2023-04-20T07:53:19.208Z,95358.00
2023-04-20T07:54:19.228Z,95354.00
2023-04-20T07:55:20.210Z,95356.00
2023-04-20T07:56:20.184Z,95352.00
2023-04-20T07:57:19.183Z,95352.00
2023-04-20T07:58:20.321Z,95354.00
2023-04-20T07:59:19.368Z,95350.00
2023-04-20T08:00:20.188Z,95352.00
2023-04-20T08:01:20.165Z,95346.00
2023-04-20T08:02:20.266Z,95350.00
2023-04-20T08:03:20.346Z,95350.00
2023-04-20T08:04:19.345Z,95346.00
2023-04-20T08:05:20.307Z,95348.00
2023-04-20T08:06:19.263Z,95350.00
2023-04-20T08:07:20.294Z,95348.00
2023-04-20T08:08:20.334Z,95350.00
2023-04-20T08:09:20.364Z,95350.00
2023-04-20T08:10:20.428Z,95350.00
2023-04-20T08:11:20.448Z,95348.00
2023-04-20T08:12:20.479Z,95346.00
2023-04-20T08:13:20.528Z,95346.00
2023-04-20T08:14:21.359Z,95346.00
2023-04-20T08:15:20.608Z,95342.00
2023-04-20T08:16:20.989Z,95346.00
2023-04-20T08:17:20.887Z,95344.00
2023-04-20T08:18:21.279Z,95342.00
2023-04-20T08:19:20.757Z,95340.00
2023-04-20T08:20:20.727Z,95338.00
2023-04-20T08:21:22.346Z,95334.00
2023-04-20T08:22:20.749Z,95336.00
2023-04-20T08:23:20.775Z,95332.00
2023-04-20T08:24:19.999Z,95336.00
2023-04-20T08:25:20.732Z,95336.00
2023-04-20T08:26:19.834Z,95336.00
2023-04-20T08:27:19.737Z,95336.00
2023-04-20T08:28:32.912Z,95330.00
2023-04-20T08:29:20.870Z,95330.00
2023-04-20T08:30:20.811Z,95330.00
2023-04-20T08:31:20.714Z,95328.00
2023-04-20T08:32:19.693Z,95328.00
2023-04-20T08:33:20.671Z,95330.00
2023-04-20T08:34:20.704Z,95328.00
2023-04-20T08:35:19.817Z,95330.00
2023-04-20T08:36:20.678Z,95332.00
2023-04-20T08:37:20.649Z,95330.00
2023-04-20T08:38:23.794Z,95336.00
2023-04-20T08:39:20.629Z,95334.00
2023-04-20T08:40:20.643Z,95330.00
2023-04-20T08:41:19.628Z,95330.00
2023-04-20T08:42:19.944Z,95330.00
2023-04-20T08:43:21.671Z,95327.00
2023-04-20T08:44:20.614Z,95327.00
2023-04-20T08:45:20.623Z,95323.00
2023-04-20T08:46:20.846Z,95323.00
2023-04-20T08:47:20.796Z,95325.00
2023-04-20T08:48:20.717Z,95323.00
2023-04-20T08:49:20.722Z,95323.00
2023-04-20T08:50:20.769Z,95317.00
2023-04-20T08:51:20.797Z,95323.00
2023-04-20T08:52:19.842Z,95319.00
2023-04-20T08:53:19.875Z,95323.00
2023-04-20T08:54:20.060Z,95319.00
2023-04-20T08:55:20.926Z,95317.00
2023-04-20T08:56:20.920Z,95317.00
2023-04-20T08:57:20.955Z,95319.00
2023-04-20T08:58:19.963Z,95321.00
2023-04-20T08:59:20.998Z,95323.00
2023-04-20T09:00:19.993Z,95327.00
2023-04-20T09:01:28.674Z,95321.00
2023-04-20T09:02:21.580Z,95319.00
2023-04-20T09:03:20.213Z,95319.00
2023-04-20T09:04:21.485Z,95313.00
2023-04-20T09:05:21.068Z,95315.00
2023-04-20T09:06:22.905Z,95311.00
2023-04-20T09:07:20.028Z,95309.00
2023-04-20T09:08:20.972Z,95311.00
2023-04-20T09:09:20.971Z,95313.00
2023-04-20T09:10:20.005Z,95311.00
2023-04-20T09:11:20.958Z,95315.00
2023-04-20T09:12:22.668Z,95317.00
2023-04-20T09:13:20.953Z,95317.00
2023-04-20T09:14:20.106Z,95315.00
2023-04-20T09:15:20.926Z,95315.00
2023-04-20T09:16:20.988Z,95313.00
2023-04-20T09:17:20.954Z,95307.00
2023-04-20T09:18:20.964Z,95303.00
2023-04-20T09:19:19.916Z,95299.00
2023-04-20T09:20:20.910Z,95301.00
2023-04-20T09:21:19.893Z,95301.00
2023-04-20T09:22:19.899Z,95301.00
2023-04-20T09:23:20.880Z,95303.00
2023-04-20T09:24:20.880Z,95301.00
2023-04-20T09:25:20.870Z,95301.00
2023-04-20T09:26:20.864Z,95293.00
2023-04-20T09:27:20.875Z,95295.00
2023-04-20T09:28:19.850Z,95293.00
2023-04-20T09:29:20.849Z,95293.00
2023-04-20T09:30:20.865Z,95297.00
2023-04-20T09:31:19.886Z,95297.00
2023-04-20T09:32:21.127Z,95299.00
2023-04-20T09:33:20.827Z,95295.00
2023-04-20T09:34:20.861Z,95297.00
2023-04-20T09:35:20.821Z,95297.00
2023-04-20T09:36:20.815Z,95297.00
2023-04-20T09:37:20.840Z,95299.00
2023-04-20T09:38:21.809Z,95297.00
2023-04-20T09:39:20.796Z,95293.00
2023-04-20T09:40:19.862Z,95295.00
2023-04-20T09:41:19.761Z,95293.00
2023-04-20T09:42:19.743Z,95293.00
2023-04-20T09:43:19.756Z,95291.00
2023-04-20T09:44:20.762Z,95293.00
2023-04-20T09:45:20.752Z,95291.00
2023-04-20T09:46:20.751Z,95293.00
2023-04-20T09:47:21.053Z,95293.00
2023-04-20T09:48:20.730Z,95297.00
2023-04-20T09:49:19.789Z,95293.00
2023-04-20T09:50:29.162Z,95289.00
2023-04-20T09:51:20.841Z,95287.00
2023-04-20T09:52:20.984Z,95287.00
2023-04-20T09:53:20.823Z,95287.00
2023-04-20T09:54:20.875Z,95287.00
2023-04-20T09:55:20.814Z,95281.00
2023-04-20T09:56:19.775Z,95287.00
2023-04-20T09:57:20.797Z,95283.00
2023-04-20T09:58:20.967Z,95281.00
2023-04-20T09:59:20.773Z,95281.00
2023-04-20T10:00:20.834Z,95276.00
2023-04-20T10:01:19.801Z,95278.00
2023-04-20T10:02:19.853Z,95278.00
2023-04-20T10:03:20.895Z,95274.00
2023-04-20T10:04:21.118Z,95278.00
2023-04-20T10:05:20.723Z,95270.00
2023-04-20T10:06:20.785Z,95272.00
2023-04-20T10:07:20.727Z,95270.00
2023-04-20T10:08:20.736Z,95274.00
2023-04-20T10:09:20.688Z,95272.00
2023-04-20T10:10:19.798Z,95272.00
2023-04-20T10:11:20.679Z,95268.00
2023-04-20T10:12:20.683Z,95270.00
2023-04-20T10:13:20.661Z,95266.00
2023-04-20T10:14:20.946Z,95264.00
2023-04-20T10:15:20.656Z,95268.00
2023-04-20T10:16:19.688Z,95268.00
2023-04-20T10:17:20.750Z,95266.00
2023-04-20T10:18:20.803Z,95270.00
2023-04-20T10:19:20.626Z,95268.00
2023-04-20T10:20:20.710Z,95270.00
2023-04-20T10:21:19.736Z,95268.00
2023-04-20T10:22:20.841Z,95268.00
2023-04-20T10:23:20.791Z,95268.00
2023-04-20T10:24:21.085Z,95270.00
2023-04-20T10:25:20.886Z,95268.00
2023-04-20T10:26:20.967Z,95268.00
2023-04-20T10:27:20.986Z,95266.00
2023-04-20T10:28:20.978Z,95266.00
2023-04-20T10:29:20.996Z,95264.00
2023-04-20T10:30:21.020Z,95264.00
2023-04-20T10:31:21.146Z,95262.00
2023-04-20T10:32:21.111Z,95262.00
2023-04-20T10:33:20.114Z,95258.00
2023-04-20T10:34:21.120Z,95256.00
2023-04-20T10:35:21.152Z,95254.00
2023-04-20T10:36:21.142Z,95248.00
2023-04-20T10:37:20.547Z,95252.00
2023-04-20T10:38:20.249Z,95248.00
2023-04-20T10:39:20.292Z,95248.00
2023-04-20T10:40:21.268Z,95250.00
2023-04-20T10:41:21.284Z,95248.00
2023-04-20T10:42:20.427Z,95250.00
2023-04-20T10:43:21.652Z,95248.00
2023-04-20T10:44:21.405Z,95244.00
2023-04-20T10:45:20.452Z,95240.00
2023-04-20T10:46:21.511Z,95240.00
2023-04-20T10:47:21.501Z,95242.00
2023-04-20T10:48:21.452Z,95240.00
2023-04-20T10:49:21.539Z,95244.00
2023-04-20T10:50:21.639Z,95242.00
2023-04-20T10:51:27.543Z,95238.00
2023-04-20T10:52:21.508Z,95236.00
2023-04-20T10:53:21.509Z,95233.00
2023-04-20T10:54:20.516Z,95231.00
2023-04-20T10:55:21.509Z,95229.00
2023-04-20T10:56:21.498Z,95229.00
2023-04-20T10:57:21.508Z,95229.00
2023-04-20T10:58:21.599Z,95223.00
2023-04-20T10:59:21.502Z,95227.00
2023-04-20T11:00:21.454Z,95229.00
2023-04-20T11:01:20.490Z,95225.00
2023-04-20T11:02:21.633Z,95223.00
2023-04-20T11:03:21.702Z,95219.00
2023-04-20T11:04:21.597Z,95219.00
2023-04-20T11:05:20.514Z,95221.00
2023-04-20T11:06:20.481Z,95221.00
2023-04-20T11:07:21.422Z,95219.00
2023-04-20T11:08:21.558Z,95213.00
2023-04-20T11:09:20.454Z,95209.00
2023-04-20T11:10:21.451Z,95211.00
2023-04-20T11:11:20.393Z,95213.00
2023-04-20T11:12:20.393Z,95215.00
2023-04-20T11:13:21.438Z,95211.00
2023-04-20T11:14:21.355Z,95213.00
2023-04-20T11:15:21.353Z,95211.00
2023-04-20T11:16:21.370Z,95209.00
2023-04-20T11:17:21.416Z,95211.00
2023-04-20T11:18:21.376Z,95207.00
2023-04-20T11:19:20.363Z,95209.00
2023-04-20T11:20:21.366Z,95207.00
2023-04-20T11:21:20.357Z,95209.00
2023-04-20T11:22:21.308Z,95209.00
2023-04-20T11:23:21.299Z,95205.00
2023-04-20T11:24:21.285Z,95205.00
2023-04-20T11:25:21.315Z,95203.00
2023-04-20T11:26:21.469Z,95201.00
2023-04-20T11:27:20.487Z,95199.00
2023-04-20T11:28:21.401Z,95199.00
2023-04-20T11:29:21.312Z,95197.00
2023-04-20T11:30:21.340Z,95203.00
2023-04-20T11:31:21.462Z,95203.00
2023-04-20T11:32:21.687Z,95203.00
2023-04-20T11:33:21.626Z,95207.00
2023-04-20T11:34:21.522Z,95209.00
2023-04-20T11:35:20.568Z,95205.00
2023-04-20T11:36:21.644Z,95209.00
2023-04-20T11:37:20.645Z,95209.00
2023-04-20T11:38:22.111Z,95205.00
2023-04-20T11:39:21.758Z,95209.00
2023-04-20T11:40:21.783Z,95205.00
2023-04-20T11:41:21.893Z,95209.00
2023-04-20T11:42:21.956Z,95205.00
2023-04-20T11:43:22.113Z,95205.00
2023-04-20T11:44:21.000Z,95203.00
2023-04-20T11:45:22.030Z,95201.00
2023-04-20T11:46:22.152Z,95205.00
2023-04-20T11:47:22.178Z,95205.00
2023-04-20T11:48:22.180Z,95203.00
2023-04-20T11:49:22.232Z,95203.00
2023-04-20T11:50:22.275Z,95203.00
2023-04-20T11:51:22.336Z,95203.00
2023-04-20T11:52:22.364Z,95205.00
2023-04-20T11:53:22.395Z,95205.00
2023-04-20T11:54:22.428Z,95203.00
2023-04-20T11:55:21.483Z,95205.00
2023-04-20T11:56:22.541Z,95207.00
2023-04-20T11:57:22.647Z,95205.00
2023-04-20T11:58:22.676Z,95205.00
2023-04-20T11:59:22.715Z,95207.00
2023-04-20T12:00:22.754Z,95209.00
2023-04-20T12:01:22.802Z,95209.00
2023-04-20T12:02:23.019Z,95211.00
2023-04-20T12:03:22.151Z,95211.00
2023-04-20T12:04:22.221Z,95207.00
2023-04-20T12:05:23.049Z,95209.00
2023-04-20T12:06:22.044Z,95209.00
2023-04-20T12:07:23.080Z,95211.00
2023-04-20T12:08:23.107Z,95209.00
2023-04-20T12:09:22.111Z,95207.00
2023-04-20T12:10:23.195Z,95205.00
2023-04-20T12:11:23.207Z,95199.00
2023-04-20T12:12:23.233Z,95195.00
2023-04-20T12:13:22.298Z,95193.00
2023-04-20T12:14:23.352Z,95189.00
2023-04-20T12:15:22.350Z,95187.00
2023-04-20T12:16:23.526Z,95186.00
2023-04-20T12:17:22.520Z,95184.00
2023-04-20T12:18:23.566Z,95184.00
2023-04-20T12:19:23.573Z,95184.00
2023-04-20T12:20:23.593Z,95184.00
2023-04-20T12:21:23.624Z,95186.00
2023-04-20T12:22:22.691Z,95184.00
2023-04-20T12:23:23.724Z,95187.00
2023-04-20T12:24:23.843Z,95187.00
2023-04-20T12:25:23.819Z,95187.00
2023-04-20T12:26:34.605Z,95186.00
2023-04-20T12:27:23.859Z,95186.00
2023-04-20T12:28:23.854Z,95184.00
2023-04-20T12:29:23.860Z,95180.00
2023-04-20T12:30:22.898Z,95186.00
2023-04-20T12:31:24.441Z,95182.00
2023-04-20T12:32:22.878Z,95186.00
2023-04-20T12:33:23.810Z,95184.00
2023-04-20T12:34:23.793Z,95182.00
2023-04-20T12:35:23.800Z,95180.00
2023-04-20T12:36:22.799Z,95180.00
2023-04-20T12:37:23.803Z,95178.00
2023-04-20T12:38:23.830Z,95178.00
2023-04-20T12:39:22.808Z,95178.00
2023-04-20T12:40:22.802Z,95178.00
2023-04-20T12:41:22.805Z,95178.00
2023-04-20T12:42:23.802Z,95180.00
2023-04-20T12:43:23.769Z,95176.00
2023-04-20T12:44:22.750Z,95176.00
2023-04-20T12:45:22.732Z,95176.00
2023-04-20T12:46:23.873Z,95176.00
2023-04-20T12:47:23.763Z,95172.00
2023-04-20T12:48:23.709Z,95172.00
2023-04-20T12:49:22.718Z,95170.00
2023-04-20T12:50:23.709Z,95170.00
2023-04-20T12:51:22.701Z,95168.00
2023-04-20T12:52:22.709Z,95172.00
2023-04-20T12:53:22.701Z,95168.00
2023-04-20T12:54:23.706Z,95168.00
2023-04-20T12:55:22.694Z,95168.00
2023-04-20T12:56:23.684Z,95166.00
2023-04-20T12:57:22.687Z,95164.00
2023-04-20T12:58:22.655Z,95164.00
2023-04-20T12:59:22.643Z,95152.00
2023-04-20T13:00:22.642Z,95150.00
2023-04-20T13:01:23.734Z,95152.00
2023-04-20T13:02:23.951Z,95150.00
2023-04-20T13:03:23.781Z,95148.00
2023-04-20T13:04:24.109Z,95148.00
2023-04-20T13:05:22.704Z,95142.00
2023-04-20T13:06:22.778Z,95144.00
2023-04-20T13:07:22.789Z,95142.00
2023-04-20T13:08:22.852Z,95141.00
2023-04-20T13:09:23.930Z,95141.00
2023-04-20T13:10:22.964Z,95141.00
2023-04-20T13:11:25.435Z,95139.00
2023-04-20T13:12:23.015Z,95137.00
2023-04-20T13:13:24.014Z,95137.00
2023-04-20T13:14:23.981Z,95137.00
2023-04-20T13:15:37.827Z,95133.00
2023-04-20T13:16:24.004Z,95133.00
2023-04-20T13:17:23.017Z,95135.00
2023-04-20T13:18:24.005Z,95135.00
2023-04-20T13:19:22.947Z,95131.00
2023-04-20T13:20:23.950Z,95133.00
2023-04-20T13:21:22.961Z,95127.00
2023-04-20T13:22:23.919Z,95127.00
2023-04-20T13:23:22.915Z,95125.00
2023-04-20T13:24:23.897Z,95123.00
2023-04-20T13:25:23.900Z,95123.00
2023-04-20T13:26:22.881Z,95125.00
2023-04-20T13:27:23.893Z,95125.00
2023-04-20T13:28:23.872Z,95127.00
2023-04-20T13:29:23.867Z,95121.00
2023-04-20T13:30:24.589Z,95123.00
2023-04-20T13:31:23.902Z,95121.00
2023-04-20T13:32:23.885Z,95123.00
2023-04-20T13:33:22.849Z,95123.00
2023-04-20T13:34:22.976Z,95125.00
2023-04-20T13:35:23.844Z,95121.00
2023-04-20T13:36:23.831Z,95125.00
2023-04-20T13:37:23.824Z,95129.00
2023-04-20T13:38:23.840Z,95127.00
2023-04-20T13:39:22.823Z,95131.00
2023-04-20T13:40:23.803Z,95127.00
2023-04-20T13:41:23.836Z,95123.00
2023-04-20T13:42:23.792Z,95127.00
2023-04-20T13:43:22.806Z,95123.00
2023-04-20T13:44:23.806Z,95129.00
2023-04-20T13:45:22.776Z,95127.00
2023-04-20T13:46:22.883Z,95127.00
2023-04-20T13:47:22.791Z,95127.00
2023-04-20T13:48:22.824Z,95119.00
2023-04-20T13:49:23.875Z,95121.00
2023-04-20T13:50:23.900Z,95119.00
2023-04-20T13:51:22.886Z,95119.00
2023-04-20T13:52:23.915Z,95119.00
2023-04-20T13:53:22.909Z,95121.00
2023-04-20T13:54:23.929Z,95117.00
2023-04-20T13:55:24.425Z,95115.00
2023-04-20T13:56:24.195Z,95115.00
2023-04-20T13:57:24.226Z,95115.00
2023-04-20T13:58:24.213Z,95115.00
2023-04-20T13:59:24.249Z,95113.00
2023-04-20T14:00:24.274Z,95113.00
2023-04-20T14:01:23.308Z,95113.00
2023-04-20T14:02:23.368Z,95109.00
2023-04-20T14:03:24.509Z,95113.00
2023-04-20T14:04:24.515Z,95113.00
2023-04-20T14:05:24.368Z,95109.00
2023-04-20T14:06:24.407Z,95105.00
2023-04-20T14:07:24.392Z,95109.00
2023-04-20T14:08:23.413Z,95105.00
2023-04-20T14:09:23.385Z,95101.00
2023-04-20T14:10:23.396Z,95099.00
2023-04-20T14:11:24.427Z,95099.00
2023-04-20T14:12:23.412Z,95095.00
2023-04-20T14:13:24.423Z,95095.00
2023-04-20T14:14:24.436Z,95095.00
2023-04-20T14:15:24.426Z,95094.00
2023-04-20T14:16:24.509Z,95094.00
2023-04-20T14:17:23.538Z,95092.00
2023-04-20T14:18:24.519Z,95090.00
2023-04-20T14:19:23.580Z,95090.00
2023-04-20T14:20:24.636Z,95088.00
2023-04-20T14:21:24.672Z,95090.00
2023-04-20T14:22:24.691Z,95088.00
2023-04-20T14:23:23.691Z,95088.00
2023-04-20T14:24:24.179Z,95086.00
2023-04-20T14:25:24.735Z,95088.00
2023-04-20T14:26:23.781Z,95090.00
2023-04-20T14:27:23.781Z,95090.00
2023-04-20T14:28:23.832Z,95088.00
2023-04-20T14:29:24.819Z,95088.00
2023-04-20T14:30:23.843Z,95088.00
2023-04-20T14:31:24.893Z,95088.00
2023-04-20T14:32:23.918Z,95088.00
2023-04-20T14:33:24.893Z,95084.00
2023-04-20T14:34:24.973Z,95084.00
2023-04-20T14:35:24.988Z,95080.00
2023-04-20T14:36:23.997Z,95080.00
2023-04-20T14:37:24.011Z,95086.00
2023-04-20T14:38:24.069Z,95084.00
2023-04-20T14:39:25.046Z,95084.00
2023-04-20T14:40:24.098Z,95082.00
2023-04-20T14:41:24.131Z,95080.00
2023-04-20T14:42:24.184Z,95078.00
2023-04-20T14:43:25.195Z,95076.00
2023-04-20T14:44:25.251Z,95072.00
2023-04-20T14:45:25.217Z,95076.00
2023-04-20T14:46:25.416Z,95072.00
2023-04-20T14:47:25.292Z,95074.00
2023-04-20T14:48:24.308Z,95074.00
2023-04-20T14:49:25.348Z,95078.00
2023-04-20T14:50:24.399Z,95076.00
2023-04-20T14:51:25.446Z,95076.00
2023-04-20T14:52:25.491Z,95072.00
2023-04-20T14:53:24.515Z,95072.00
2023-04-20T14:54:24.624Z,95072.00
2023-04-20T14:55:24.598Z,95072.00
2023-04-20T14:56:25.621Z,95070.00
2023-04-20T14:57:24.629Z,95068.00
2023-04-20T14:58:24.683Z,95066.00
2023-04-20T14:59:25.728Z,95070.00
2023-04-20T15:00:24.777Z,95068.00
2023-04-20T15:01:25.817Z,95066.00
2023-04-20T15:02:25.069Z,95060.00
2023-04-20T15:03:25.055Z,95060.00
2023-04-20T15:04:25.325Z,95060.00
2023-04-20T15:05:25.051Z,95060.00
2023-04-20T15:06:26.002Z,95054.00
2023-04-20T15:07:26.057Z,95058.00
2023-04-20T15:08:26.109Z,95060.00
2023-04-20T15:09:25.138Z,95058.00
2023-04-20T15:10:26.183Z,95062.00
2023-04-20T15:11:25.198Z,95064.00
2023-04-20T15:12:26.253Z,95064.00
2023-04-20T15:13:26.244Z,95062.00
2023-04-20T15:14:26.254Z,95060.00
2023-04-20T15:15:29.699Z,95058.00
2023-04-20T15:16:26.292Z,95058.00
2023-04-20T15:17:26.321Z,95062.00
2023-04-20T15:18:26.221Z,95060.00
2023-04-20T15:19:26.229Z,95060.00
2023-04-20T15:20:26.215Z,95062.00
2023-04-20T15:21:25.209Z,95066.00
2023-04-20T15:22:26.226Z,95068.00
2023-04-20T15:23:26.208Z,95064.00
2023-04-20T15:24:26.216Z,95064.00
2023-04-20T15:25:26.260Z,95066.00
2023-04-20T15:26:25.192Z,95066.00
2023-04-20T15:27:25.209Z,95066.00
2023-04-20T15:28:25.172Z,95066.00
2023-04-20T15:29:25.193Z,95064.00
